Koznitza — 9HA4119 — position and weather

sailwx.info

Track history (hours):
 
Tides and Currents Weather Stations Pressure Air Temp Water Temp Dewpoint Dewpoint Depression Visibility Wind Speed Wind Dir Waves Ship Positions

Koznitza

Last reported at 2017-Oct-08 07:17 UTC. Time now 2017-Oct-20 11:05 UTC.
Position N 40°59' E 028°60'.
Warning: this ship's position is 12 days out of date.

Length 180 m; draft 5.8 m.

Type: Cargo ship. MMSI: 249129000.

Date/timePositionNaut miles runAvg speedWind from/ knotsBaromVisibWave heightAir tempDewpointWater temp
2017-Oct-08 07:17N 40°59' E 028°60'411.4
2017-Oct-08 06:58N 40°56' E 028°59'3 7.3
2017-Oct-08 06:31N 40°53' E 028°55'6 0.6
2017-Oct-07 19:09N 40°47' E 028°57'212.5
2017-Oct-07 18:59N 40°47' E 028°60'612.3
2017-Oct-07 18:30N 40°47' E 029°07'611.5
2017-Oct-07 18:00N 40°44' E 029°14'611.4
2017-Oct-07 17:30N 40°44' E 029°22'611.3
2017-Oct-07 16:56N 40°45' E 029°30'  
2017-Oct-03 17:54N 40°46' E 029°36'  
2017-Oct-01 12:23N 40°45' E 029°29'410.1
2017-Oct-01 12:00N 40°43' E 029°24'4 7.1
2017-Oct-01 11:30N 40°43' E 029°19'510.3
2017-Oct-01 11:00N 40°44' E 029°13'510.8
2017-Oct-01 10:30N 40°44' E 029°06'285 7.4
2017-Sep-29 19:55N 37°44' E 024°20'  
Track history (hours):
 
Tides and Currents Weather Stations Pressure Air Temp Water Temp Dewpoint Dewpoint Depression Visibility Wind Speed Wind Dir Waves Ship Positions

Koznitza

Last reported at 2017-Oct-08 07:17 UTC. Time now 2017-Oct-20 11:05 UTC.
Position N 40°59' E 028°60'.
Warning: this ship's position is 12 days out of date.

Length 180 m; draft 5.8 m.

Type: Cargo ship. MMSI: 249129000.

Date/timePositionNaut miles runAvg speedWind from/ knotsBaromVisibWave heightAir tempDewpointWater temp
2017-Oct-08 07:17N 40°59' E 028°60'411.4
2017-Oct-08 06:58N 40°56' E 028°59'3 7.3
2017-Oct-08 06:31N 40°53' E 028°55'6 0.6
2017-Oct-07 19:09N 40°47' E 028°57'212.5
2017-Oct-07 18:59N 40°47' E 028°60'612.3
2017-Oct-07 18:30N 40°47' E 029°07'611.5
2017-Oct-07 18:00N 40°44' E 029°14'611.4
2017-Oct-07 17:30N 40°44' E 029°22'611.3
2017-Oct-07 16:56N 40°45' E 029°30'  
2017-Oct-03 17:54N 40°46' E 029°36'  
2017-Oct-01 12:23N 40°45' E 029°29'410.1
2017-Oct-01 12:00N 40°43' E 029°24'4 7.1
2017-Oct-01 11:30N 40°43' E 029°19'510.3
2017-Oct-01 11:00N 40°44' E 029°13'510.8
2017-Oct-01 10:30N 40°44' E 029°06'285 7.4
2017-Sep-29 19:55N 37°44' E 024°20'  

Dump ship's entire track history